This is the latest recevied weather packets stored in our database for station/object DB0MI. If no packets are shown the sender has not sent any weather packets the latest 1 day(s).
| Time | Temp. | Humidity | Pressure | Rain* | Wind** | Luminosity | Snow |
|---|---|---|---|---|---|---|---|
| 1836274594 | 19.44° C | 65% | 1019.9 hPa | 0 mm | 0 m/s | - | - |
| 1836274444 | 18.89° C | 65% | 1019.8 hPa | 0 mm | 0 m/s | - | - |
| 1836273995 | 19.44° C | 65% | 1019.9 hPa | 0 mm | 0 m/s | - | - |
| 1778013104 | 11.67° C | 92% | 1006.8 hPa | 0 mm | 0 m/s | - | - |
| 1778012504 | 11.11° C | 92% | 1006.8 hPa | 0 mm | 0 m/s | - | - |
| 1778011904 | 11.11° C | 91% | 1006.5 hPa | 0 mm | 0 m/s | - | - |
| 1778011304 | 11.11° C | 91% | 1006.5 hPa | 0 mm | 0 m/s | - | - |
| 1778010704 | 11.11° C | 91% | 1006.4 hPa | 0 mm | 0 m/s | - | - |
| 1778010104 | 11.11° C | 91% | 1006.6 hPa | 0 mm | 0 m/s | - | - |
| 1778009504 | 11.11° C | 92% | 1006.3 hPa | 0 mm | 0 m/s | - | - |
| 1778008904 | 11.67° C | 91% | 1006.2 hPa | 0 mm | 0 m/s | - | - |
| 1778008304 | 11.67° C | 91% | 1006.4 hPa | 0 mm | 0 m/s | - | - |
| 1778007704 | 11.67° C | 91% | 1006.4 hPa | 0 mm | 0 m/s | - | - |
| 1778007104 | 11.67° C | 91% | 1006.4 hPa | 0 mm | 0 m/s | - | - |
| 1778006504 | 11.67° C | 91% | 1006.3 hPa | 0 mm | 0 m/s | - | - |
| 1778005904 | 11.67° C | 91% | 1006.1 hPa | 0 mm | 0 m/s | - | - |
| 1778005304 | 12.22° C | 91% | 1006.1 hPa | 0 mm | 0 m/s | - | - |
| 1778004704 | 12.22° C | 91% | 1006.1 hPa | 0 mm | 0 m/s | - | - |
| 1778004104 | 12.22° C | 91% | 1006.1 hPa | 0 mm | 0 m/s | - | - |
| 1778003504 | 12.22° C | 91% | 1006.3 hPa | 0 mm | 0 m/s | - | - |
| 1778002904 | 12.78° C | 90% | 1006.3 hPa | 0 mm | 0 m/s | - | - |
| 1778002304 | 12.78° C | 90% | 1006.6 hPa | 0 mm | 0 m/s | - | - |
| 1778001704 | 12.78° C | 90% | 1006.6 hPa | 0 mm | 0 m/s | - | - |
| 1778001104 | 12.78° C | 90% | 1006.5 hPa | 0.51 mm | 0 m/s | - | - |
| 1778000504 | 12.78° C | 90% | 1006.7 hPa | 0.51 mm | 0 m/s | - | - |
* Rain latest hour (hover to see other rain measurements)
** Current wind speed in m/s (hover to see current wind gust speed)